Time;durP1;ratioP1;P1;durP2;ratioP2;P2;SDS_P1;SDS_P2;PMS_P1;PMS_P2;Temp;Humidity;BMP_temperature;BMP_pressure;BME280_temperature;BME280_humidity;BME280_pressure;Samples;Min_cycle;Max_cycle;Signal;HPM_P1;HPM_P2
2023/07/03 00:02:00;;;;;;;;;4.00;2.00;;;;;24.16;35.80;100996.69;4938628;28;60074;-55
2023/07/03 00:04:26;;;;;;;;;3.00;3.00;;;;;24.13;35.38;100988.13;4939161;28;45510;-53
2023/07/03 00:06:52;;;;;;;;;3.00;2.00;;;;;24.14;35.83;100984.53;4938951;28;45337;-50
2023/07/03 00:09:17;;;;;;;;;0.00;0.00;;;;;24.16;36.11;100993.22;4937295;28;60415;-52
2023/07/03 00:11:43;;;;;;;;;3.50;3.50;;;;;24.15;35.97;100991.53;4939187;28;45463;-54
2023/07/03 00:14:08;;;;;;;;;4.00;2.50;;;;;24.12;36.11;100992.59;4939087;28;45588;-51
2023/07/03 00:16:33;;;;;;;;;4.50;2.00;;;;;24.09;35.94;100990.97;4938990;28;45159;-52
2023/07/03 00:18:59;;;;;;;;;4.00;2.00;;;;;24.11;36.27;100996.19;4937808;28;45554;-47
2023/07/03 00:21:25;;;;;;;;;3.00;3.00;;;;;24.11;36.20;100990.03;4939036;28;45333;-47
2023/07/03 00:23:50;;;;;;;;;3.00;1.25;;;;;24.11;36.19;100987.38;4939226;28;45277;-51
2023/07/03 00:26:16;;;;;;;;;2.00;2.00;;;;;24.09;35.83;100983.03;4938689;28;45471;-53
2023/07/03 00:28:41;;;;;;;;;2.25;2.25;;;;;24.09;36.47;100977.72;4937402;28;45408;-46
2023/07/03 00:31:06;;;;;;;;;2.00;2.00;;;;;24.08;36.66;100986.66;4938977;28;46737;-51
2023/07/03 00:33:31;;;;;;;;;2.00;2.00;;;;;24.08;36.52;100976.06;4939115;28;45325;-55
2023/07/03 00:35:57;;;;;;;;;2.75;2.00;;;;;24.07;36.19;100971.72;4938641;28;46185;-54
2023/07/03 00:38:22;;;;;;;;;2.50;2.50;;;;;24.07;36.68;100963.78;4938271;28;54193;-51
2023/07/03 00:40:47;;;;;;;;;3.00;2.25;;;;;24.08;36.41;100969.91;4938399;28;48342;-53
2023/07/03 00:43:13;;;;;;;;;3.50;2.00;;;;;24.06;36.73;100967.38;4938651;28;45417;-54
2023/07/03 00:45:38;;;;;;;;;3.25;2.25;;;;;24.09;36.64;100964.50;4938621;28;46502;-52
2023/07/03 00:48:04;;;;;;;;;3.50;2.00;;;;;24.08;36.65;100959.31;4939115;28;45451;-54
2023/07/03 00:50:30;;;;;;;;;2.25;1.50;;;;;24.09;37.07;100969.78;4938704;28;45250;-54
2023/07/03 00:53:01;;;;;;;;;5.25;3.00;;;;;24.09;36.46;100964.50;4938822;28;45444;-48
2023/07/03 00:55:30;;;;;;;;;4.75;2.00;;;;;24.11;37.03;100966.19;4938349;28;45638;-48
2023/07/03 00:57:55;;;;;;;;;0.00;0.00;;;;;24.09;36.79;100968.97;4930408;28;45240;-43
2023/07/03 01:00:25;;;;;;;;;5.00;1.50;;;;;24.07;36.74;100965.56;4919362;28;45399;-48
2023/07/03 01:03:32;;;;;;;;;3.00;3.00;;;;;24.06;36.80;100972.66;4919194;28;45325;-45
2023/07/03 01:06:01;;;;;;;;;3.00;2.00;;;;;24.08;37.24;100965.47;4905680;28;46835;-45
2023/07/03 01:08:27;;;;;;;;;3.00;3.00;;;;;24.05;37.22;100955.09;4919165;28;45595;-47
2023/07/03 01:10:54;;;;;;;;;5.00;2.00;;;;;24.05;37.54;100955.09;4919187;28;45314;-46
2023/07/03 01:13:22;;;;;;;;;3.00;3.00;;;;;24.07;37.51;100957.63;4918411;28;45504;-46
2023/07/03 01:15:48;;;;;;;;;4.50;3.00;;;;;24.04;37.44;100958.69;4917956;28;45394;-49
2023/07/03 01:18:15;;;;;;;;;3.75;3.00;;;;;24.05;37.38;100965.69;4919088;28;45817;-50
2023/07/03 01:20:47;;;;;;;;;2.50;2.50;;;;;24.05;37.13;100959.50;4919397;28;45322;-56
2023/07/03 01:23:28;;;;;;;;;4.00;4.00;;;;;24.05;37.69;100956.88;4919327;28;45380;-54
2023/07/03 01:25:56;;;;;;;;;3.75;3.00;;;;;24.06;37.61;100963.84;4918892;28;46907;-51
2023/07/03 01:28:24;;;;;;;;;3.50;2.00;;;;;24.06;37.51;100959.44;4918918;28;46271;-53
2023/07/03 01:30:53;;;;;;;;;2.00;2.00;;;;;24.05;37.16;100965.69;4919140;28;45319;-48
2023/07/03 01:33:25;;;;;;;;;2.00;2.00;;;;;24.05;37.74;100960.38;4919160;28;45590;-54
2023/07/03 01:35:53;;;;;;;;;5.75;3.00;;;;;24.05;37.68;100968.31;4918402;28;45474;-54
2023/07/03 01:38:20;;;;;;;;;2.75;2.75;;;;;24.06;37.67;100962.06;4918748;28;45744;-52
2023/07/03 01:40:46;;;;;;;;;4.75;2.00;;;;;24.07;37.29;100962.91;4918821;28;45393;-51
2023/07/03 01:43:13;;;;;;;;;3.00;3.00;;;;;24.06;37.96;100953.28;4919273;28;45745;-52
2023/07/03 01:45:44;;;;;;;;;1.75;1.75;;;;;24.06;37.91;100967.38;4918885;28;45432;-50
2023/07/03 01:48:10;;;;;;;;;3.50;3.00;;;;;24.05;37.57;100963.03;4918956;28;45342;-54
2023/07/03 01:50:38;;;;;;;;;2.00;2.00;;;;;24.03;37.48;100954.34;4918708;28;45287;-54
2023/07/03 01:53:13;;;;;;;;;2.50;2.50;;;;;24.07;37.56;100962.91;4918856;28;45632;-54
2023/07/03 01:55:50;;;;;;;;;5.50;3.75;;;;;24.06;37.63;100964.72;4918799;28;45822;-53
2023/07/03 01:58:26;;;;;;;;;3.00;3.00;;;;;24.08;38.04;100965.47;4918549;28;45397;-52
2023/07/03 02:00:58;;;;;;;;;5.25;3.00;;;;;24.07;38.00;100958.47;4918414;28;45267;-53
2023/07/03 02:03:35;;;;;;;;;3.50;2.00;;;;;24.08;38.41;100965.47;4917396;28;45666;-55
2023/07/03 02:06:05;;;;;;;;;2.25;2.25;;;;;24.05;38.32;100951.56;4918416;28;45416;-51
2023/07/03 02:08:31;;;;;;;;;3.00;2.25;;;;;24.05;37.85;100949.78;4918456;28;45392;-51
2023/07/03 02:10:57;;;;;;;;;5.25;3.00;;;;;24.07;38.25;100958.47;4918539;28;45318;-53
2023/07/03 02:13:22;;;;;;;;;3.50;3.00;;;;;24.07;38.62;100955.84;4918760;28;45498;-53
2023/07/03 02:15:48;;;;;;;;;4.75;4.00;;;;;24.04;38.03;100949.88;4916814;28;48010;-50
2023/07/03 02:18:17;;;;;;;;;3.00;3.00;;;;;24.06;38.69;100951.50;4918698;28;45394;-54
2023/07/03 02:20:44;;;;;;;;;3.00;3.00;;;;;24.06;38.14;100954.13;4917483;28;45380;-54
2023/07/03 02:23:09;;;;;;;;;3.00;3.00;;;;;24.06;38.18;100951.50;4919048;28;45584;-53
2023/07/03 02:25:35;;;;;;;;;2.00;2.00;;;;;24.07;38.75;100945.25;4918320;28;45484;-54
2023/07/03 02:28:00;;;;;;;;;2.75;2.75;;;;;24.08;38.27;100949.59;4920973;28;45406;-54
2023/07/03 02:30:26;;;;;;;;;3.75;3.00;;;;;24.05;38.45;100944.50;4921024;28;55436;-54
2023/07/03 02:32:51;;;;;;;;;4.50;3.75;;;;;24.07;38.82;100942.59;4921713;28;45432;-54
2023/07/03 02:35:16;;;;;;;;;5.00;3.50;;;;;24.09;38.53;100943.31;4921447;28;45364;-53
2023/07/03 02:37:42;;;;;;;;;3.00;3.00;;;;;24.09;38.32;100931.88;4921494;28;45535;-52
2023/07/03 02:40:13;;;;;;;;;2.25;2.25;;;;;24.09;38.89;100929.25;4921272;28;45824;-53
2023/07/03 02:42:38;;;;;;;;;3.00;3.00;;;;;24.08;38.62;100933.69;4921378;28;45195;-53
2023/07/03 02:45:05;;;;;;;;;6.00;4.00;;;;;24.09;38.62;100924.78;4921077;28;45337;-50
2023/07/03 02:47:35;;;;;;;;;4.00;3.00;;;;;24.07;39.10;100932.00;4921224;28;45368;-54
2023/07/03 02:50:02;;;;;;;;;6.00;3.00;;;;;24.09;38.68;100940.66;4921298;28;45829;-48
2023/07/03 02:52:28;;;;;;;;;4.25;4.25;;;;;24.09;39.02;100945.13;4920065;28;45557;-50
2023/07/03 02:54:53;;;;;;;;;6.25;4.00;;;;;24.09;39.17;100943.31;4920944;28;46140;-47
2023/07/03 02:57:18;;;;;;;;;4.25;3.25;;;;;24.10;39.01;100936.22;4920585;28;54047;-52
2023/07/03 02:59:44;;;;;;;;;3.50;3.50;;;;;24.08;39.28;100939.00;4921493;28;45363;-51
2023/07/03 03:02:09;;;;;;;;;5.00;3.50;;;;;24.09;38.92;100953.91;4920898;28;45302;-52
2023/07/03 03:04:34;;;;;;;;;1.75;1.25;;;;;24.11;38.80;100947.66;4920616;28;51901;-52
2023/07/03 03:06:59;;;;;;;;;3.33;3.33;;;;;24.10;39.14;100936.22;4920190;28;63073;-53
2023/07/03 03:09:25;;;;;;;;;2.33;2.33;;;;;24.12;39.31;100938.75;4920454;28;56035;-54
2023/07/03 03:11:50;;;;;;;;;5.00;4.00;;;;;24.11;39.17;100935.28;4920847;28;45488;-54
2023/07/03 03:14:15;;;;;;;;;2.00;2.00;;;;;24.12;39.33;100936.13;4920679;28;45468;-51
2023/07/03 03:16:41;;;;;;;;;3.25;3.25;;;;;24.11;39.31;100937.06;4919429;28;45441;-50
2023/07/03 03:19:06;;;;;;;;;4.00;3.00;;;;;24.12;39.31;100944.91;4920565;28;49588;-53
2023/07/03 03:21:31;;;;;;;;;3.25;3.25;;;;;24.12;39.16;100933.47;4920719;28;45273;-52
2023/07/03 03:23:57;;;;;;;;;4.25;4.25;;;;;24.11;39.29;100927.34;4920548;28;46304;-50
2023/07/03 03:26:22;;;;;;;;;8.00;3.00;;;;;24.11;38.92;100929.13;4920591;28;45377;-49
2023/07/03 03:28:47;;;;;;;;;2.75;2.75;;;;;24.07;38.81;100926.72;4920559;28;52070;-49
2023/07/03 03:31:12;;;;;;;;;7.50;4.25;;;;;24.08;39.48;100927.53;4920236;28;53009;-49
2023/07/03 03:33:38;;;;;;;;;7.00;6.25;;;;;24.08;38.90;100936.34;4920438;28;45422;-51
2023/07/03 03:36:03;;;;;;;;;4.25;4.25;;;;;24.07;39.55;100936.44;4920461;28;45300;-51
2023/07/03 03:38:29;;;;;;;;;5.50;3.00;;;;;24.05;39.08;100933.03;4919989;28;45358;-50
2023/07/03 03:40:57;;;;;;;;;6.75;5.00;;;;;24.06;39.38;100932.94;4920731;28;45617;-55
2023/07/03 03:43:22;;;;;;;;;7.25;4.75;;;;;24.05;38.95;100933.03;4920183;28;45548;-52
2023/07/03 03:45:59;;;;;;;;;5.50;4.00;;;;;24.04;39.37;100934.00;4919253;28;45258;-52
2023/07/03 03:48:26;;;;;;;;;5.50;5.00;;;;;24.02;39.66;100934.09;4920427;28;45468;-53
2023/07/03 03:50:52;;;;;;;;;7.50;5.50;;;;;23.99;39.18;100923.72;4920452;28;45576;-52
2023/07/03 03:53:18;;;;;;;;;4.00;2.00;;;;;24.00;39.35;100929.88;4920401;28;46247;-50
2023/07/03 03:55:43;;;;;;;;;6.25;5.00;;;;;24.00;39.41;100936.00;4920167;28;45318;-52
2023/07/03 03:58:11;;;;;;;;;7.00;5.75;;;;;23.99;40.01;100934.31;4920181;28;45421;-52
2023/07/03 04:00:37;;;;;;;;;7.00;6.75;;;;;23.98;39.70;100940.56;4920326;28;45525;-52
2023/07/03 04:03:02;;;;;;;;;4.25;4.00;;;;;23.99;39.93;100928.19;4919848;28;46377;-54
2023/07/03 04:05:28;;;;;;;;;6.75;4.50;;;;;23.96;39.75;100928.38;4919492;28;58860;-51
2023/07/03 04:07:53;;;;;;;;;5.50;5.50;;;;;24.03;40.20;100940.25;4920181;28;45363;-52
2023/07/03 04:10:18;;;;;;;;;4.25;4.25;;;;;24.03;39.83;100938.44;4920643;28;45545;-51
2023/07/03 04:12:44;;;;;;;;;4.25;4.25;;;;;24.04;39.85;100934.84;4919860;28;45362;-53
2023/07/03 04:15:09;;;;;;;;;4.00;4.00;;;;;24.05;39.80;100933.03;4919616;28;45261;-54
2023/07/03 04:17:34;;;;;;;;;5.25;3.75;;;;;24.06;40.11;100932.94;4920079;28;45498;-55
2023/07/03 04:20:00;;;;;;;;;4.00;3.75;;;;;24.07;40.09;100932.00;4919828;28;45339;-56
2023/07/03 04:22:26;;;;;;;;;5.25;5.25;;;;;24.08;40.22;100933.69;4919574;28;46353;-56
2023/07/03 04:24:52;;;;;;;;;9.00;5.50;;;;;24.10;39.70;100944.19;4919867;28;45753;-54
2023/07/03 04:27:18;;;;;;;;;8.50;5.75;;;;;24.09;40.27;100935.38;4920256;28;45381;-57
2023/07/03 04:29:43;;;;;;;;;8.50;6.00;;;;;24.11;40.16;100935.28;4919906;28;45306;-57
2023/07/03 04:32:09;;;;;;;;;4.50;4.00;;;;;24.13;39.74;100941.31;4919221;28;54616;-56
2023/07/03 04:34:36;;;;;;;;;4.50;4.50;;;;;24.15;40.21;100943.84;4918243;28;45906;-55
2023/07/03 04:37:03;;;;;;;;;4.25;3.75;;;;;24.13;40.15;100936.03;4918653;28;45376;-57
2023/07/03 04:39:29;;;;;;;;;6.25;4.75;;;;;24.17;40.19;100931.38;4918696;28;45257;-55
2023/07/03 04:41:59;;;;;;;;;5.25;4.75;;;;;24.18;40.17;100930.41;4919468;28;46241;-56
2023/07/03 04:44:25;;;;;;;;;5.00;4.25;;;;;24.15;40.13;100923.50;4919555;28;45239;-56
2023/07/03 04:46:50;;;;;;;;;6.50;6.50;;;;;24.20;40.02;100925.81;4919866;28;45345;-55
2023/07/03 04:49:15;;;;;;;;;6.25;5.00;;;;;24.19;40.16;100927.66;4919315;28;45188;-55
2023/07/03 04:51:41;;;;;;;;;5.25;5.00;;;;;24.20;40.56;100931.13;4917806;28;58231;-54
2023/07/03 04:54:07;;;;;;;;;6.00;4.75;;;;;24.21;40.25;100935.47;4918551;28;45227;-58
2023/07/03 04:56:34;;;;;;;;;6.50;6.50;;;;;24.22;40.48;100935.38;4918614;28;45330;-57
2023/07/03 04:58:59;;;;;;;;;7.00;3.00;;;;;24.19;40.13;100929.47;4919583;28;45219;-55
2023/07/03 05:01:25;;;;;;;;;6.25;5.00;;;;;24.23;40.85;100930.91;4918950;28;45490;-56
2023/07/03 05:03:50;;;;;;;;;6.25;4.50;;;;;24.25;41.09;100926.38;4919313;28;45440;-57
2023/07/03 05:06:15;;;;;;;;;4.75;3.00;;;;;24.24;40.53;100935.25;4919260;28;45338;-55
2023/07/03 05:08:41;;;;;;;;;5.25;4.50;;;;;24.24;40.66;100932.63;4918569;28;45301;-55
2023/07/03 05:11:06;;;;;;;;;5.75;5.75;;;;;24.24;41.19;100935.25;4918930;28;45523;-55
2023/07/03 05:13:31;;;;;;;;;7.25;4.25;;;;;24.24;40.98;100929.97;4917702;28;45344;-53
2023/07/03 05:15:57;;;;;;;;;6.00;3.75;;;;;24.24;41.62;100933.47;4918534;28;53345;-56
2023/07/03 05:18:22;;;;;;;;;8.25;5.00;;;;;24.24;40.85;100932.63;4919352;28;45503;-53
2023/07/03 05:20:48;;;;;;;;;9.50;4.00;;;;;24.24;40.78;100933.47;4918746;28;46197;-50
2023/07/03 05:23:15;;;;;;;;;3.75;3.75;;;;;24.23;40.72;100929.13;4918910;28;45822;-49
2023/07/03 05:25:41;;;;;;;;;5.25;3.00;;;;;24.24;41.02;100940.56;4918913;28;45417;-50
2023/07/03 05:28:07;;;;;;;;;6.25;4.75;;;;;24.23;41.10;100946.81;4917931;28;45538;-51
2023/07/03 05:30:32;;;;;;;;;5.75;5.00;;;;;24.20;41.36;100944.38;4918652;28;49876;-50
2023/07/03 05:32:57;;;;;;;;;7.75;3.50;;;;;24.22;41.48;100951.28;4918759;28;45346;-51
2023/07/03 05:35:23;;;;;;;;;4.25;4.25;;;;;24.22;41.63;100942.47;4919059;28;48650;-50
2023/07/03 05:37:48;;;;;;;;;6.50;3.50;;;;;24.22;41.69;100942.47;4918962;28;45192;-48
2023/07/03 05:40:14;;;;;;;;;8.33;5.33;;;;;24.18;41.37;100925.94;4917959;28;64938;-53
2023/07/03 05:42:40;;;;;;;;;6.00;5.00;;;;;24.16;41.41;100929.66;4918653;28;45821;-48
2023/07/03 05:45:07;;;;;;;;;5.50;4.50;;;;;24.18;41.15;100927.75;4918864;28;45342;-48
2023/07/03 05:47:35;;;;;;;;;5.00;5.00;;;;;24.15;41.20;100922.66;4918868;28;45474;-49
2023/07/03 05:50:00;;;;;;;;;4.50;2.25;;;;;24.14;41.29;100926.28;4918552;28;46466;-47
2023/07/03 05:52:26;;;;;;;;;5.75;3.75;;;;;24.14;40.89;100924.50;4918826;28;45247;-49
2023/07/03 05:54:51;;;;;;;;;6.00;4.00;;;;;24.17;41.07;100931.38;4918626;28;45183;-47
2023/07/03 05:57:16;;;;;;;;;4.50;3.75;;;;;24.17;41.45;100934.84;4918756;28;45453;-48
2023/07/03 05:59:42;;;;;;;;;6.50;3.75;;;;;24.18;41.08;100933.06;4918429;28;46199;-45
2023/07/03 06:02:10;;;;;;;;;5.50;3.50;;;;;24.18;40.94;100933.06;4919763;28;45412;-52
2023/07/03 06:04:36;;;;;;;;;8.25;5.50;;;;;24.17;41.14;100931.38;4921936;28;45366;-52
2023/07/03 06:07:02;;;;;;;;;3.00;2.00;;;;;24.17;40.93;100936.66;4922062;28;45587;-48
2023/07/03 06:09:28;;;;;;;;;3.50;3.50;;;;;24.16;40.69;100935.78;4922019;28;45394;-51
2023/07/03 06:11:53;;;;;;;;;3.50;3.50;;;;;24.14;41.29;100932.44;4922071;28;45306;-53
2023/07/03 06:14:19;;;;;;;;;4.00;4.00;;;;;24.12;40.68;100941.41;4921565;28;45340;-49
2023/07/03 06:16:47;;;;;;;;;3.50;3.25;;;;;24.11;40.93;100935.28;4922015;28;45283;-53
2023/07/03 06:19:14;;;;;;;;;5.25;2.00;;;;;24.15;41.23;100946.50;4921493;28;45298;-52
2023/07/03 06:21:39;;;;;;;;;7.25;5.00;;;;;24.15;40.96;100943.84;4921574;28;45798;-50
2023/07/03 06:24:07;;;;;;;;;3.75;3.75;;;;;24.15;40.77;100949.97;4921745;28;45640;-55
2023/07/03 06:26:33;;;;;;;;;4.50;4.25;;;;;24.12;40.86;100944.06;4921760;28;45377;-52
2023/07/03 06:29:00;;;;;;;;;7.75;4.25;;;;;24.16;40.90;100937.59;4921731;28;46521;-48
2023/07/03 06:31:26;;;;;;;;;4.25;4.00;;;;;24.16;40.53;100942.91;4921764;28;45234;-51
2023/07/03 06:33:51;;;;;;;;;4.75;4.75;;;;;24.17;41.12;100941.94;4921510;28;45286;-53
2023/07/03 06:36:21;;;;;;;;;6.00;4.25;;;;;24.17;40.86;100941.94;4921589;28;45358;-51
2023/07/03 06:38:53;;;;;;;;;6.25;4.00;;;;;24.22;40.59;100943.31;4921234;28;46293;-54
2023/07/03 06:41:20;;;;;;;;;6.00;5.00;;;;;24.23;40.74;100939.72;4921319;28;45207;-49
2023/07/03 06:43:45;;;;;;;;;5.25;4.50;;;;;24.24;40.79;100937.91;4921186;28;45555;-50
2023/07/03 06:46:10;;;;;;;;;2.00;0.50;;;;;24.21;40.94;100935.47;4921418;28;45385;-51
2023/07/03 06:48:37;;;;;;;;;8.50;3.75;;;;;24.24;40.39;100943.22;4920998;28;45416;-47
2023/07/03 06:51:04;;;;;;;;;4.00;4.00;;;;;24.25;40.48;100936.97;4921163;28;45405;-51
2023/07/03 06:53:30;;;;;;;;;5.25;2.50;;;;;24.27;40.31;100944.78;4921786;28;45461;-52
2023/07/03 06:55:57;;;;;;;;;6.50;3.00;;;;;24.27;40.33;100937.72;4921477;28;45246;-48
2023/07/03 06:58:23;;;;;;;;;8.75;3.25;;;;;24.27;40.38;100935.06;4920810;28;47349;-52
2023/07/03 07:00:49;;;;;;;;;4.75;4.00;;;;;24.26;40.88;100935.16;4920854;28;45248;-48
2023/07/03 07:03:14;;;;;;;;;6.75;6.00;;;;;24.24;40.26;100943.22;4920993;28;45329;-47
2023/07/03 07:05:39;;;;;;;;;3.00;3.00;;;;;24.19;40.82;100940.06;4920803;28;45223;-51
2023/07/03 07:08:05;;;;;;;;;5.75;4.00;;;;;24.22;40.25;100942.47;4920674;28;46325;-52
2023/07/03 07:10:30;;;;;;;;;4.75;3.75;;;;;24.23;40.60;100947.66;4920911;28;45351;-47
2023/07/03 07:12:55;;;;;;;;;4.25;3.00;;;;;24.25;40.23;100942.25;4919536;28;53213;-49
2023/07/03 07:15:20;;;;;;;;;4.00;3.00;;;;;24.25;40.15;100944.91;4920021;28;51037;-50
2023/07/03 07:17:46;;;;;;;;;5.25;3.75;;;;;24.26;40.66;100953.69;4920101;28;58799;-52
2023/07/03 07:20:11;;;;;;;;;5.00;3.25;;;;;24.26;40.60;100954.56;4919716;28;45835;-47
2023/07/03 07:22:37;;;;;;;;;7.00;4.00;;;;;24.25;40.60;100955.50;4920620;28;45437;-49
2023/07/03 07:25:03;;;;;;;;;6.50;3.25;;;;;24.26;40.42;100959.84;4920883;28;45441;-46
2023/07/03 07:27:28;;;;;;;;;4.25;3.00;;;;;24.27;40.09;100952.75;4920568;28;46729;-48
2023/07/03 07:29:53;;;;;;;;;3.00;3.00;;;;;24.24;40.77;100953.81;4920381;28;45515;-51
2023/07/03 07:32:19;;;;;;;;;4.00;4.00;;;;;24.22;40.56;100953.06;4920610;28;45416;-51
2023/07/03 07:34:45;;;;;;;;;6.25;4.00;;;;;24.25;39.89;100952.84;4919540;28;45368;-49
2023/07/03 07:37:11;;;;;;;;;4.75;2.25;;;;;24.26;40.47;100951.91;4920199;28;46304;-53
2023/07/03 07:39:41;;;;;;;;;4.25;4.00;;;;;24.26;39.87;100954.56;4920238;28;45230;-49
2023/07/03 07:42:07;;;;;;;;;7.00;5.00;;;;;24.27;40.46;100958.03;4920215;28;45315;-49
2023/07/03 07:44:33;;;;;;;;;4.00;2.75;;;;;24.26;40.46;100961.63;4920823;28;45365;-54
2023/07/03 07:46:58;;;;;;;;;3.50;2.00;;;;;24.24;40.46;100957.31;4920350;28;47164;-54
2023/07/03 07:49:24;;;;;;;;;4.00;2.50;;;;;24.25;40.22;100960.81;4920180;28;45408;-47
2023/07/03 07:51:49;;;;;;;;;4.00;4.00;;;;;24.26;39.99;100961.63;4920389;28;45422;-53
2023/07/03 07:54:14;;;;;;;;;5.00;2.75;;;;;24.27;40.48;100963.31;4920456;28;45267;-55
2023/07/03 07:56:40;;;;;;;;;4.00;4.00;;;;;24.27;40.32;100964.19;4920011;28;46875;-52
2023/07/03 07:59:05;;;;;;;;;3.25;3.25;;;;;24.27;40.29;100960.69;4920115;28;45322;-53
2023/07/03 08:01:31;;;;;;;;;4.00;3.00;;;;;24.27;40.28;100964.19;4918998;28;45325;-53
2023/07/03 08:03:56;;;;;;;;;3.00;2.00;;;;;24.27;39.99;100966.84;4920285;28;45188;-52
2023/07/03 08:06:21;;;;;;;;;5.25;3.00;;;;;24.28;40.52;100965.03;4919775;28;45258;-51
2023/07/03 08:08:47;;;;;;;;;4.00;2.00;;;;;24.27;39.89;100961.53;4919963;28;45295;-52
2023/07/03 08:11:13;;;;;;;;;4.00;4.00;;;;;24.27;40.17;100964.19;4920005;28;45562;-53
2023/07/03 08:13:39;;;;;;;;;1.25;1.25;;;;;24.28;40.25;100965.88;4920280;28;45438;-49
2023/07/03 08:16:05;;;;;;;;;7.25;4.00;;;;;24.27;40.59;100958.91;4919996;28;46233;-47
2023/07/03 08:18:31;;;;;;;;;5.25;4.00;;;;;24.28;40.57;100965.03;4920125;28;45314;-50
2023/07/03 08:20:56;;;;;;;;;3.50;3.50;;;;;24.28;40.00;100965.88;4919783;28;45349;-52
2023/07/03 08:23:22;;;;;;;;;4.00;3.25;;;;;24.29;40.52;100966.72;4919773;28;45229;-50
2023/07/03 08:25:52;;;;;;;;;3.00;3.00;;;;;24.27;39.90;100964.19;4917939;28;47279;-48
2023/07/03 08:28:18;;;;;;;;;4.50;2.75;;;;;24.27;40.75;100966.84;4919731;28;45774;-47
2023/07/03 08:30:44;;;;;;;;;4.75;4.75;;;;;24.29;40.11;100966.72;4919634;28;45414;-50
2023/07/03 08:33:09;;;;;;;;;8.25;3.00;;;;;24.29;40.13;100959.63;4919742;28;45488;-51
2023/07/03 14:37:39;;;;;;;;;3.00;3.00;;;;;24.73;33.37;100930.97;4966023;28;45352;-57
2023/07/03 14:40:05;;;;;;;;;3.50;2.25;;;;;24.73;33.53;100936.28;4976689;28;45193;-54
2023/07/03 14:42:30;;;;;;;;;3.00;3.00;;;;;24.74;33.22;100918.59;4979549;28;44738;-57
2023/07/03 14:44:57;;;;;;;;;4.75;4.75;;;;;24.77;33.32;100926.28;4970367;28;45252;-55
2023/07/03 14:47:23;;;;;;;;;4.00;3.75;;;;;24.77;33.55;100919.19;4979624;28;46168;-53
2023/07/03 14:49:48;;;;;;;;;4.75;3.25;;;;;24.77;32.95;100918.34;4977713;28;45233;-54
2023/07/03 14:52:15;;;;;;;;;3.75;3.75;;;;;24.78;33.58;100926.19;4977636;28;45696;-54
2023/07/03 14:54:41;;;;;;;;;3.50;3.50;;;;;24.77;33.19;100913.91;4978062;28;45947;-55
2023/07/03 14:57:06;;;;;;;;;4.25;4.25;;;;;24.79;33.25;100913.78;4979123;28;46090;-56
2023/07/03 14:59:32;;;;;;;;;4.50;4.00;;;;;24.78;33.07;100915.59;4982387;28;50033;-57
2023/07/03 15:01:57;;;;;;;;;6.75;4.00;;;;;24.79;33.32;100911.13;4981671;28;45785;-54
2023/07/03 15:04:22;;;;;;;;;5.00;3.00;;;;;24.78;33.35;100914.72;4982144;28;45442;-53
2023/07/03 15:06:48;;;;;;;;;3.00;3.00;;;;;24.79;33.76;100913.78;4981547;28;46943;-55
2023/07/03 15:09:13;;;;;;;;;5.50;4.25;;;;;24.80;33.74;100912.81;4983416;28;45884;-56
2023/07/03 15:11:39;;;;;;;;;5.00;3.00;;;;;24.78;33.94;100910.28;4981519;28;44738;-54
2023/07/03 15:14:06;;;;;;;;;4.00;4.00;;;;;24.79;33.29;100913.78;4981304;28;44790;-54
2023/07/03 15:16:33;;;;;;;;;4.00;4.00;;;;;24.81;33.52;100909.22;4981328;28;45426;-51
2023/07/03 15:19:06;;;;;;;;;10.00;6.25;;;;;24.81;33.69;100910.06;4982189;28;44935;-53
2023/07/03 15:21:35;;;;;;;;;5.00;4.00;;;;;24.82;33.26;100910.91;4980648;28;45321;-57
2023/07/03 15:24:01;;;;;;;;;4.00;4.00;;;;;24.83;33.29;100908.13;4970961;28;45427;-55
2023/07/03 15:26:26;;;;;;;;;5.25;5.25;;;;;24.85;33.71;100916.00;4969172;28;45341;-51
2023/07/03 15:28:52;;;;;;;;;6.00;6.00;;;;;24.85;33.93;100910.69;4968995;28;45295;-53
2023/07/03 15:31:18;;;;;;;;;5.50;5.50;;;;;24.83;33.21;100909.97;4968036;28;45418;-48
2023/07/03 15:33:43;;;;;;;;;7.00;5.75;;;;;24.88;33.23;100913.09;4969809;28;45487;-48
2023/07/03 15:36:08;;;;;;;;;6.00;5.00;;;;;24.89;33.34;100908.66;4976612;28;53489;-56
2023/07/03 15:38:34;;;;;;;;;6.25;4.50;;;;;24.89;33.60;100917.44;4976720;28;44838;-55
2023/07/03 15:40:59;;;;;;;;;7.75;4.75;;;;;24.90;33.29;100910.34;4973422;28;61708;-54
2023/07/03 15:43:26;;;;;;;;;5.25;4.00;;;;;24.91;33.68;100909.41;4975360;28;44824;-50
2023/07/03 15:46:14;;;;;;;;;7.50;7.00;;;;;24.90;33.75;100903.25;4976410;28;45189;-53
2023/07/03 15:48:40;;;;;;;;;5.25;4.75;;;;;24.91;33.56;100906.75;4962454;28;45698;-56
2023/07/03 15:51:07;;;;;;;;;7.00;5.00;;;;;24.91;33.35;100912.06;4961428;28;45372;-54
2023/07/03 15:53:34;;;;;;;;;5.00;5.00;;;;;24.90;33.46;100903.25;4961808;28;45553;-48
2023/07/03 15:56:11;;;;;;;;;7.00;3.25;;;;;24.91;33.48;100899.63;4960923;28;46307;-55
2023/07/03 15:58:45;;;;;;;;;5.75;5.00;;;;;24.91;33.55;100910.22;4968511;28;45718;-53
2023/07/03 16:01:18;;;;;;;;;6.00;5.00;;;;;24.90;33.35;100897.94;4979680;28;44742;-52
2023/07/03 16:03:47;;;;;;;;;4.75;4.25;;;;;24.90;33.86;100902.41;4962576;28;45444;-51
2023/07/03 16:06:17;;;;;;;;;9.00;5.00;;;;;24.90;33.86;100903.25;4960306;28;45432;-54
2023/07/03 16:08:44;;;;;;;;;4.25;4.25;;;;;24.89;33.25;100896.25;4961460;28;45753;-51
2023/07/03 16:11:12;;;;;;;;;8.00;5.25;;;;;24.91;33.55;100898.81;4961288;28;45741;-53
2023/07/03 16:13:39;;;;;;;;;4.25;4.25;;;;;24.90;33.50;100889.97;4960249;28;45902;-55
2023/07/03 16:16:07;;;;;;;;;5.00;5.00;;;;;24.90;33.54;100895.28;4959919;28;47059;-53
2023/07/03 16:18:33;;;;;;;;;4.50;4.50;;;;;24.91;33.66;100901.44;4960335;28;45308;-53
2023/07/03 16:21:00;;;;;;;;;5.75;5.50;;;;;24.91;33.96;100896.97;4960380;28;45411;-53
2023/07/03 16:23:27;;;;;;;;;11.75;6.25;;;;;24.91;33.47;100899.63;4960130;28;45594;-53
2023/07/03 16:26:00;;;;;;;;;7.25;5.50;;;;;24.92;33.67;100905.75;4964919;28;46175;-53
2023/07/03 16:28:29;;;;;;;;;6.50;5.75;;;;;24.92;33.91;100900.47;4978362;28;45255;-52
2023/07/03 16:31:16;;;;;;;;;9.75;6.25;;;;;24.91;33.33;100899.63;4980698;28;45348;-53
2023/07/03 16:33:44;;;;;;;;;8.00;4.50;;;;;24.91;33.33;100899.63;4980189;28;45622;-52
2023/07/03 16:36:21;;;;;;;;;7.50;6.00;;;;;24.92;33.41;100896.03;4961252;28;46224;-48
2023/07/03 16:38:51;;;;;;;;;11.50;6.00;;;;;24.93;34.34;100899.50;4967193;28;45225;-51
2023/07/03 16:41:17;;;;;;;;;7.50;6.00;;;;;24.93;33.96;100895.06;4960155;28;45560;-49
2023/07/03 16:43:44;;;;;;;;;9.25;7.00;;;;;24.94;34.69;100904.72;4960867;28;45432;-55
2023/07/03 16:46:13;;;;;;;;;7.00;7.00;;;;;24.96;33.95;100908.13;4980382;28;46269;-56
2023/07/03 16:48:39;;;;;;;;;8.75;7.00;;;;;24.98;34.39;100902.69;4975713;28;45427;-53
2023/07/03 16:51:06;;;;;;;;;7.25;6.00;;;;;24.98;34.49;100900.88;4982157;28;44805;-58
2023/07/03 16:53:34;;;;;;;;;7.00;5.75;;;;;24.98;34.56;100895.56;4961160;28;45383;-57
2023/07/03 16:56:03;;;;;;;;;8.75;6.50;;;;;24.98;34.37;100900.88;4957603;28;45453;-58
2023/07/03 16:58:29;;;;;;;;;8.00;7.00;;;;;24.99;34.78;100901.72;4959178;28;45642;-52
2023/07/03 17:00:55;;;;;;;;;8.25;6.00;;;;;25.00;34.26;100893.66;4959214;28;45190;-50
2023/07/03 17:03:21;;;;;;;;;7.25;7.00;;;;;25.01;34.55;100900.66;4958307;28;45404;-55
2023/07/03 17:05:47;;;;;;;;;8.75;7.00;;;;;25.02;34.55;100890.91;4957772;28;46292;-56
2023/07/03 17:08:13;;;;;;;;;11.25;8.00;;;;;25.00;34.01;100888.34;4958085;28;45634;-56
2023/07/03 17:10:38;;;;;;;;;5.75;5.25;;;;;25.00;34.00;100885.69;4957830;28;45518;-55
2023/07/03 17:13:05;;;;;;;;;9.75;8.75;;;;;25.01;33.93;100890.03;4958364;28;45557;-54
2023/07/03 17:15:31;;;;;;;;;9.00;9.00;;;;;25.02;34.62;100890.91;4957456;28;45938;-54
2023/07/03 17:17:57;;;;;;;;;8.50;6.25;;;;;25.02;34.49;100880.28;4957843;28;45340;-57
2023/07/03 17:20:22;;;;;;;;;7.75;7.25;;;;;25.04;34.59;100882.81;4957316;28;45489;-49
2023/07/03 17:22:47;;;;;;;;;9.75;6.50;;;;;25.05;34.44;100884.53;4957909;28;45553;-49
2023/07/03 17:25:13;;;;;;;;;9.75;6.00;;;;;25.05;34.00;100879.22;4956321;28;47466;-52